E.r. Basel — A8XQ4 — position and weather

sailwx.info

Track history (hours):
 
Tides and Currents Weather Stations Pressure Air Temp Water Temp Dewpoint Dewpoint Depression Visibility Wind Speed Wind Dir Waves Ship Positions

E.r. Basel

Last reported at 2016-May-24 01:15 UTC. Time now 2016-May-27 12:21 UTC.
Position N 43°37' W 004°42'.

Length 187 m; draft 7.5 m.

Type: Cargo ship. MMSI: 636092149.

Date/timePositionNaut miles runAvg speedWind from/ knotsBaromVisibWave heightAir tempDewpointWater temp
2016-May-24 01:15N 43°37' W 004°42'1311.7
2016-May-24 00:08N 43°38' W 004°60'711.7
2016-May-23 23:34N 43°39' W 005°09'1211.9
2016-May-23 22:33N 43°40' W 005°25'1211.8
2016-May-23 21:32N 43°41' W 005°42'12 0.3
2016-May-22 11:06N 43°36' W 005°57'2 2.9
2016-May-22 10:33N 43°37' W 005°59'1413.6
2016-May-22 09:32N 43°40' W 006°17'30810.9
2016-May-21 05:14N 39°16' W 009°49'1014.1
2016-May-21 04:33N 39°07' W 009°49'1414.0
2016-May-21 03:33N 38°53' W 009°49'1413.9
2016-May-21 02:33N 38°39' W 009°49'1413.9
2016-May-21 01:33N 38°26' W 009°44'1413.6
2016-May-21 00:33N 38°12' W 009°41'1313.4
2016-May-20 23:33N 37°59' W 009°37'1413.5
2016-May-20 22:33N 37°46' W 009°33'1413.7
2016-May-20 21:33N 37°33' W 009°29'1413.9
2016-May-20 20:33N 37°19' W 009°25'1413.8
2016-May-20 19:33N 37°06' W 009°21'1313.3
2016-May-20 18:33N 36°53' W 009°16'1313.3
2016-May-20 17:33N 36°45' W 009°03'1814.1
2016-May-20 16:18N 36°39' W 008°43'16013.6
2016-May-20 04:32N 35°59' W 005°31'8 8.6
2016-May-20 03:34N 36°01' W 005°21'9 9.3
2016-May-20 02:33N 36°04' W 005°10'20512.8
2016-May-19 10:31N 37°12' W 001°08'1313.5
2016-May-19 09:33N 37°20' W 000°55'1313.0
2016-May-19 08:33N 37°28' W 000°43'1212.5
2016-May-19 07:33N 37°37' W 000°32'1312.5
2016-May-19 06:33N 37°48' W 000°23'1312.6
2016-May-19 05:33N 37°58' W 000°15'1312.8
2016-May-19 04:33N 38°09' W 000°06'1312.6
2016-May-19 03:33N 38°20' E 000°03'2712.3
2016-May-19 01:20N 38°42' E 000°22'4812.2
2016-May-18 21:27N 39°25' W 000°05'1112.4
2016-May-18 20:33N 39°35' W 000°12'5 0.1
2016-May-17 13:31N 39°39' W 000°13'4 0.1
2016-May-16 06:15N 39°36' W 000°11'6210.8
2016-May-16 00:31N 39°23' E 001°07'1010.8
2016-May-15 23:33N 39°20' E 001°21'1010.4
2016-May-15 22:33N 39°18' E 001°34'1010.5
2016-May-15 21:33N 39°15' E 001°47'1110.9
2016-May-15 20:33N 39°13' E 002°01'1111.3
2016-May-15 19:33N 39°10' E 002°15'1111.4
2016-May-15 18:33N 39°08' E 002°29'1111.3
2016-May-15 17:33N 39°05' E 002°43'1111.1
2016-May-15 16:33N 39°02' E 002°57'1111.1
2016-May-15 15:33N 38°60' E 003°11'1111.1
2016-May-15 14:33N 38°57' E 003°25'1211.3
2016-May-15 13:32N 38°54' E 003°39'  
Track history (hours):
 
Tides and Currents Weather Stations Pressure Air Temp Water Temp Dewpoint Dewpoint Depression Visibility Wind Speed Wind Dir Waves Ship Positions

E.r. Basel

Last reported at 2016-May-24 01:15 UTC. Time now 2016-May-27 12:21 UTC.
Position N 43°37' W 004°42'.

Length 187 m; draft 7.5 m.

Type: Cargo ship. MMSI: 636092149.

Date/timePositionNaut miles runAvg speedWind from/ knotsBaromVisibWave heightAir tempDewpointWater temp
2016-May-24 01:15N 43°37' W 004°42'1311.7
2016-May-24 00:08N 43°38' W 004°60'711.7
2016-May-23 23:34N 43°39' W 005°09'1211.9
2016-May-23 22:33N 43°40' W 005°25'1211.8
2016-May-23 21:32N 43°41' W 005°42'12 0.3
2016-May-22 11:06N 43°36' W 005°57'2 2.9
2016-May-22 10:33N 43°37' W 005°59'1413.6
2016-May-22 09:32N 43°40' W 006°17'30810.9
2016-May-21 05:14N 39°16' W 009°49'1014.1
2016-May-21 04:33N 39°07' W 009°49'1414.0
2016-May-21 03:33N 38°53' W 009°49'1413.9
2016-May-21 02:33N 38°39' W 009°49'1413.9
2016-May-21 01:33N 38°26' W 009°44'1413.6
2016-May-21 00:33N 38°12' W 009°41'1313.4
2016-May-20 23:33N 37°59' W 009°37'1413.5
2016-May-20 22:33N 37°46' W 009°33'1413.7
2016-May-20 21:33N 37°33' W 009°29'1413.9
2016-May-20 20:33N 37°19' W 009°25'1413.8
2016-May-20 19:33N 37°06' W 009°21'1313.3
2016-May-20 18:33N 36°53' W 009°16'1313.3
2016-May-20 17:33N 36°45' W 009°03'1814.1
2016-May-20 16:18N 36°39' W 008°43'16013.6
2016-May-20 04:32N 35°59' W 005°31'8 8.6
2016-May-20 03:34N 36°01' W 005°21'9 9.3
2016-May-20 02:33N 36°04' W 005°10'20512.8
2016-May-19 10:31N 37°12' W 001°08'1313.5
2016-May-19 09:33N 37°20' W 000°55'1313.0
2016-May-19 08:33N 37°28' W 000°43'1212.5
2016-May-19 07:33N 37°37' W 000°32'1312.5
2016-May-19 06:33N 37°48' W 000°23'1312.6
2016-May-19 05:33N 37°58' W 000°15'1312.8
2016-May-19 04:33N 38°09' W 000°06'1312.6
2016-May-19 03:33N 38°20' E 000°03'2712.3
2016-May-19 01:20N 38°42' E 000°22'4812.2
2016-May-18 21:27N 39°25' W 000°05'1112.4
2016-May-18 20:33N 39°35' W 000°12'5 0.1
2016-May-17 13:31N 39°39' W 000°13'4 0.1
2016-May-16 06:15N 39°36' W 000°11'6210.8
2016-May-16 00:31N 39°23' E 001°07'1010.8
2016-May-15 23:33N 39°20' E 001°21'1010.4
2016-May-15 22:33N 39°18' E 001°34'1010.5
2016-May-15 21:33N 39°15' E 001°47'1110.9
2016-May-15 20:33N 39°13' E 002°01'1111.3
2016-May-15 19:33N 39°10' E 002°15'1111.4
2016-May-15 18:33N 39°08' E 002°29'1111.3
2016-May-15 17:33N 39°05' E 002°43'1111.1
2016-May-15 16:33N 39°02' E 002°57'1111.1
2016-May-15 15:33N 38°60' E 003°11'1111.1
2016-May-15 14:33N 38°57' E 003°25'1211.3
2016-May-15 13:32N 38°54' E 003°39'  

Dump ship's entire track history